Terminal Aerodrome Forecast
Issued by NWS

Home | Current Version | Previous Version | Text Only | Print | Product List | Glossary On
Versions: 1 2 3 4 5 6 7 8 9 10 11 12 13 14 15 16 17 18 19 20 21 22 23 24 25 26 27 28 29 30 31 32 33 34 35 36 37 38 39 40
194
FTAK31 PANC 211721
TAFAEN
TAF
PAEN 211721Z 2118/2218 01003KT P6SM -SN OVC040
      TEMPO 2118/2122 2SM -SHSN BR OVC025
     FM212200 01003KT 5SM -SN BR OVC025
     FM220600 VRB03KT P6SM SCT015 BKN030
     FM221400 03004KT P6SM SCT030 BKN045=

USA.gov is the U.S. government's official web portal to all federal, state and local government web resources and services.